Time;durP1;ratioP1;P1;durP2;ratioP2;P2;SDS_P1;SDS_P2;PMS_P1;PMS_P2;Temp;Humidity;BMP_temperature;BMP_pressure;BME280_temperature;BME280_humidity;BME280_pressure;Samples;Min_cycle;Max_cycle;Signal;HPM_P1;HPM_P2
2022/08/15 00:01:24;;;;;;;12.40;7.82;;;23.90;78.70;;;;;;5023209;28;20045;-60
2022/08/15 00:03:54;;;;;;;10.45;8.10;;;23.80;78.80;;;;;;5022168;28;20041;-60
2022/08/15 00:06:24;;;;;;;10.70;7.97;;;23.80;79.00;;;;;;5022871;28;20164;-62
2022/08/15 00:08:53;;;;;;;8.52;7.47;;;23.80;79.20;;;;;;5021953;28;20052;-61
2022/08/15 00:11:47;;;;;;;10.13;7.70;;;23.80;79.20;;;;;;5021936;28;20041;-61
2022/08/15 00:14:21;;;;;;;9.85;7.43;;;23.70;79.30;;;;;;5020382;28;20045;-61
2022/08/15 00:16:48;;;;;;;11.05;7.97;;;23.70;79.40;;;;;;5022696;28;20073;-61
2022/08/15 00:19:20;;;;;;;11.45;7.78;;;23.60;79.70;;;;;;5022135;28;20041;-62
2022/08/15 00:21:50;;;;;;;11.82;8.40;;;23.60;79.90;;;;;;5020845;28;20141;-61
2022/08/15 00:24:20;;;;;;;8.70;7.80;;;23.60;79.90;;;;;;5005478;28;20107;-62
2022/08/15 00:26:51;;;;;;;13.55;8.00;;;23.60;80.10;;;;;;5022974;28;20099;-61
2022/08/15 00:29:19;;;;;;;8.55;7.47;;;23.50;80.20;;;;;;5021706;28;20052;-61
2022/08/15 00:31:46;;;;;;;10.90;7.78;;;23.50;80.30;;;;;;5021891;28;20049;-61
2022/08/15 00:34:16;;;;;;;10.70;8.00;;;23.50;80.10;;;;;;5019854;28;20078;-62
2022/08/15 00:36:43;;;;;;;9.25;7.50;;;23.50;80.30;;;;;;5022217;28;20033;-62
2022/08/15 00:39:09;;;;;;;12.48;8.07;;;23.50;80.50;;;;;;5022556;28;20119;-61
2022/08/15 00:41:41;;;;;;;9.35;8.00;;;23.50;81.10;;;;;;5022502;28;20037;-62
2022/08/15 00:44:13;;;;;;;8.68;7.60;;;23.50;80.90;;;;;;5020561;28;20052;-61
2022/08/15 00:46:47;;;;;;;8.30;7.50;;;23.40;80.80;;;;;;5021350;28;20041;-61
2022/08/15 00:49:14;;;;;;;9.45;8.20;;;23.40;80.90;;;;;;5019510;28;20103;-60
2022/08/15 00:51:45;;;;;;;9.10;7.90;;;23.40;81.00;;;;;;5022224;28;20054;-61
2022/08/15 00:54:25;;;;;;;8.45;7.45;;;23.40;81.10;;;;;;5021605;28;20377;-61
2022/08/15 00:57:15;;;;;;;9.88;8.65;;;23.40;81.10;;;;;;5022533;28;20045;-61
2022/08/15 00:59:46;;;;;;;8.82;7.93;;;23.40;81.30;;;;;;5014309;28;20084;-62
2022/08/15 01:02:16;;;;;;;9.30;8.05;;;23.30;81.40;;;;;;5020090;28;20106;-61
2022/08/15 01:04:42;;;;;;;9.93;8.15;;;23.30;82.20;;;;;;5020169;28;20476;-61
2022/08/15 01:07:09;;;;;;;9.70;8.50;;;23.30;81.80;;;;;;5022428;28;20076;-61
2022/08/15 01:09:36;;;;;;;9.90;8.25;;;23.20;82.00;;;;;;5022916;28;20048;-61
2022/08/15 01:12:15;;;;;;;9.38;8.10;;;23.20;82.40;;;;;;5020393;28;20076;-62
2022/08/15 01:14:48;;;;;;;13.57;8.57;;;23.20;82.60;;;;;;5021169;28;20124;-61
2022/08/15 01:17:15;;;;;;;11.73;9.07;;;23.10;82.70;;;;;;5035780;28;20049;-60
2022/08/15 01:20:17;;;;;;;10.85;9.38;;;23.10;83.10;;;;;;5020091;28;20487;-60
2022/08/15 01:23:01;;;;;;;10.57;8.95;;;23.10;83.10;;;;;;5020391;28;20602;-62
2022/08/15 01:25:44;;;;;;;10.68;9.05;;;23.00;83.30;;;;;;5021575;28;20073;-60
2022/08/15 01:28:25;;;;;;;13.75;8.75;;;23.00;83.60;;;;;;5020913;28;20076;-61
2022/08/15 01:30:55;;;;;;;14.57;9.10;;;22.90;83.80;;;;;;5017785;28;20090;-61
2022/08/15 01:33:22;;;;;;;10.00;9.00;;;22.90;84.00;;;;;;5018744;28;20054;-61
2022/08/15 01:35:49;;;;;;;10.23;9.23;;;22.90;84.30;;;;;;5023717;28;20044;-60
2022/08/15 01:38:21;;;;;;;11.45;8.73;;;22.90;84.40;;;;;;5023940;28;20049;-61
2022/08/15 01:41:19;;;;;;;10.52;9.13;;;22.90;84.70;;;;;;5022383;28;20122;-61
2022/08/15 01:44:24;;;;;;;10.68;8.85;;;22.90;84.50;;;;;;5023069;28;20049;-62
2022/08/15 01:46:59;;;;;;;15.05;9.20;;;22.90;84.40;;;;;;5018838;28;20514;-61
2022/08/15 01:49:34;;;;;;;12.27;9.48;;;22.90;84.50;;;;;;5020931;28;20049;-60
2022/08/15 01:52:03;;;;;;;12.55;9.80;;;22.90;84.30;;;;;;5023412;28;20057;-61
2022/08/15 01:54:36;;;;;;;15.18;9.30;;;22.90;84.30;;;;;;5022623;28;20534;-61
2022/08/15 01:57:04;;;;;;;13.10;9.57;;;22.90;84.30;;;;;;5023724;28;20044;-61
2022/08/15 01:59:31;;;;;;;10.27;9.27;;;22.90;84.30;;;;;;5023291;28;20452;-61
2022/08/15 02:02:04;;;;;;;10.65;9.52;;;22.90;84.30;;;;;;5021663;28;20124;-61
2022/08/15 02:04:33;;;;;;;13.68;9.80;;;23.00;84.20;;;;;;5019682;28;20159;-61
2022/08/15 02:07:10;;;;;;;11.32;9.45;;;22.90;84.20;;;;;;5022090;28;20044;-62
2022/08/15 02:09:36;;;;;;;11.35;9.38;;;23.00;84.20;;;;;;5023688;28;20045;-62
2022/08/15 02:12:08;;;;;;;12.55;9.57;;;22.90;84.30;;;;;;5022618;28;20467;-61
2022/08/15 02:14:35;;;;;;;13.43;9.30;;;22.90;84.40;;;;;;5019684;28;20492;-61
2022/08/15 02:17:03;;;;;;;11.15;9.70;;;22.90;84.40;;;;;;5020139;28;20551;-62
2022/08/15 02:19:29;;;;;;;11.48;9.95;;;23.00;84.60;;;;;;5036206;28;20136;-62
2022/08/15 02:21:55;;;;;;;13.40;10.30;;;22.90;84.90;;;;;;5019526;28;20049;-60
2022/08/15 02:24:23;;;;;;;14.32;10.25;;;22.90;85.10;;;;;;5038213;28;20050;-62
2022/08/15 02:26:51;;;;;;;10.70;9.57;;;22.90;85.30;;;;;;5020699;28;20053;-61
2022/08/15 02:29:22;;;;;;;13.55;10.00;;;22.80;85.40;;;;;;5020655;28;20049;-61
2022/08/15 02:31:51;;;;;;;10.93;9.73;;;22.80;85.60;;;;;;5021692;28;20472;-61
2022/08/15 02:34:18;;;;;;;12.10;9.23;;;22.80;85.40;;;;;;5023465;28;20530;-61
2022/08/15 02:36:44;;;;;;;11.38;10.23;;;22.70;85.30;;;;;;5022234;28;20045;-61
2022/08/15 02:39:10;;;;;;;12.40;10.05;;;22.70;85.60;;;;;;5021701;28;20073;-62
2022/08/15 02:41:41;;;;;;;10.13;9.13;;;22.70;85.70;;;;;;5020284;28;20472;-60
2022/08/15 02:44:08;;;;;;;12.88;9.38;;;22.60;85.50;;;;;;5020235;28;20045;-61
2022/08/15 02:46:37;;;;;;;10.77;9.55;;;22.60;85.40;;;;;;5020604;28;20081;-61
2022/08/15 02:49:04;;;;;;;12.07;10.40;;;22.60;85.60;;;;;;5021673;28;20087;-60
2022/08/15 02:51:30;;;;;;;15.52;10.75;;;22.60;85.60;;;;;;5037090;28;20091;-61
2022/08/15 02:53:56;;;;;;;11.13;9.93;;;22.60;85.70;;;;;;5022963;28;20595;-62
2022/08/15 02:56:25;;;;;;;14.60;10.27;;;22.60;85.50;;;;;;5003346;28;20054;-61
2022/08/15 02:58:51;;;;;;;11.57;10.13;;;22.60;85.70;;;;;;5003132;28;20960;-61
2022/08/15 03:01:20;;;;;;;11.68;10.40;;;22.50;85.80;;;;;;5035832;28;20041;-61
2022/08/15 03:03:49;;;;;;;13.50;10.75;;;22.60;86.10;;;;;;5038378;28;20139;-61
2022/08/15 03:06:19;;;;;;;12.75;10.68;;;22.50;86.20;;;;;;5019927;28;20160;-61
2022/08/15 03:08:45;;;;;;;15.57;11.15;;;22.50;86.50;;;;;;5020075;28;20104;-61
2022/08/15 03:11:13;;;;;;;10.98;9.77;;;22.60;86.80;;;;;;5021204;28;21024;-59
2022/08/15 03:13:40;;;;;;;12.35;10.20;;;22.60;86.50;;;;;;5024543;28;20049;-60
2022/08/15 03:16:09;;;;;;;13.32;10.35;;;22.50;86.50;;;;;;5023400;28;20051;-59
2022/08/15 03:18:36;;;;;;;15.63;10.90;;;22.50;86.50;;;;;;5025356;28;20103;-59
2022/08/15 03:21:06;;;;;;;13.93;10.80;;;22.50;86.50;;;;;;5039183;28;20492;-59
2022/08/15 03:23:33;;;;;;;13.30;10.35;;;22.50;86.60;;;;;;5024684;28;20484;-60
2022/08/15 03:26:02;;;;;;;13.93;10.65;;;22.50;86.60;;;;;;5022965;28;20226;-61
2022/08/15 03:28:31;;;;;;;13.52;10.48;;;22.50;86.80;;;;;;5024404;28;20045;-61
2022/08/15 03:31:03;;;;;;;14.32;10.15;;;22.50;86.70;;;;;;5025601;28;20056;-61
2022/08/15 03:33:31;;;;;;;12.40;10.75;;;22.50;86.70;;;;;;5024382;28;20053;-61
2022/08/15 03:35:58;;;;;;;12.63;10.05;;;22.50;86.90;;;;;;5023884;28;20045;-62
2022/08/15 03:38:24;;;;;;;11.95;10.52;;;22.50;87.00;;;;;;5024227;28;20408;-59
2022/08/15 03:40:51;;;;;;;12.27;10.07;;;22.50;87.00;;;;;;5007318;28;20574;-59
2022/08/15 03:43:27;;;;;;;11.50;9.45;;;22.50;87.10;;;;;;5023334;28;20056;-60
2022/08/15 03:45:57;;;;;;;12.75;10.75;;;22.50;87.20;;;;;;5024538;28;20049;-59
2022/08/15 03:48:25;;;;;;;14.02;10.85;;;22.50;87.00;;;;;;5025226;28;20096;-59
2022/08/15 03:50:53;;;;;;;14.88;9.82;;;22.50;87.10;;;;;;5020694;28;20167;-60
2022/08/15 03:53:20;;;;;;;12.27;10.43;;;22.50;87.00;;;;;;5024732;28;20049;-60
2022/08/15 03:55:46;;;;;;;12.52;10.52;;;22.50;87.00;;;;;;5021992;28;20080;-60
2022/08/15 03:58:13;;;;;;;13.82;10.50;;;22.50;87.40;;;;;;5024432;28;20503;-61
2022/08/15 04:00:48;;;;;;;12.75;11.40;;;22.50;87.80;;;;;;5024336;28;20120;-60
2022/08/15 04:03:17;;;;;;;13.23;10.52;;;22.40;88.90;;;;;;5022984;28;20103;-61
2022/08/15 04:05:51;;;;;;;13.18;10.80;;;22.30;89.20;;;;;;5022986;28;20119;-60
2022/08/15 04:08:20;;;;;;;15.10;11.50;;;22.30;89.60;;;;;;5024949;28;20045;-60
2022/08/15 04:10:49;;;;;;;14.18;11.68;;;22.20;90.00;;;;;;5040221;28;20042;-60
2022/08/15 04:13:15;;;;;;;12.82;10.27;;;22.10;90.30;;;;;;5026214;28;20132;-60
2022/08/15 04:15:41;;;;;;;11.98;10.48;;;22.00;90.30;;;;;;5026161;28;20052;-61
2022/08/15 04:18:09;;;;;;;11.02;9.93;;;22.00;90.40;;;;;;5024258;28;20633;-60
2022/08/15 04:20:35;;;;;;;13.57;9.90;;;22.00;90.40;;;;;;5021000;28;20045;-60
2022/08/15 04:23:02;;;;;;;12.50;10.35;;;21.90;90.30;;;;;;5023018;28;20128;-60
2022/08/15 04:25:33;;;;;;;10.70;9.60;;;21.90;90.50;;;;;;5020448;28;20048;-60
2022/08/15 04:28:03;;;;;;;10.23;9.15;;;21.90;90.40;;;;;;5025453;28;20123;-60
2022/08/15 04:30:32;;;;;;;12.57;11.27;;;21.90;90.40;;;;;;5023201;28;20546;-60
2022/08/15 04:33:16;;;;;;;11.98;10.77;;;21.90;90.80;;;;;;5023320;28;20053;-59
2022/08/15 04:35:46;;;;;;;15.45;11.05;;;21.80;90.70;;;;;;5022225;28;20053;-60
2022/08/15 04:38:13;;;;;;;12.88;11.57;;;21.80;90.80;;;;;;5021276;28;20076;-60
2022/08/15 04:40:40;;;;;;;13.93;10.93;;;21.70;90.90;;;;;;5022177;28;20044;-61
2022/08/15 04:43:06;;;;;;;14.05;11.07;;;21.70;91.00;;;;;;5022144;28;20053;-60
2022/08/15 04:45:34;;;;;;;13.95;12.55;;;21.70;91.20;;;;;;5021728;28;20049;-60
2022/08/15 04:48:03;;;;;;;15.85;11.98;;;21.60;91.80;;;;;;5021503;28;20629;-61
2022/08/15 04:50:33;;;;;;;12.80;11.32;;;21.60;91.90;;;;;;5022726;28;20067;-60
2022/08/15 04:53:00;;;;;;;13.32;12.00;;;21.60;92.00;;;;;;5021959;28;20136;-59
2022/08/15 04:55:27;;;;;;;18.30;13.15;;;21.60;92.30;;;;;;5004317;28;20049;-60
2022/08/15 04:57:53;;;;;;;15.27;13.68;;;21.60;92.50;;;;;;5021972;28;20146;-60
2022/08/15 05:00:22;;;;;;;14.60;12.13;;;21.60;92.70;;;;;;5022230;28;20041;-60
2022/08/15 05:03:18;;;;;;;15.63;12.45;;;21.60;93.10;;;;;;5020317;28;20049;-60
2022/08/15 05:05:49;;;;;;;13.63;12.23;;;21.60;92.60;;;;;;5003637;28;20137;-60
2022/08/15 05:08:15;;;;;;;14.90;13.13;;;21.60;92.70;;;;;;5017203;28;20103;-59
2022/08/15 05:10:44;;;;;;;14.77;13.30;;;21.70;93.00;;;;;;5018147;28;20128;-60
2022/08/15 05:13:19;;;;;;;16.05;13.13;;;21.70;93.20;;;;;;5023139;28;20046;-60
2022/08/15 05:15:46;;;;;;;15.05;13.07;;;21.70;93.30;;;;;;5020859;28;20397;-60
2022/08/15 05:18:12;;;;;;;14.80;13.20;;;21.70;93.30;;;;;;5021749;28;20081;-60
2022/08/15 05:20:41;;;;;;;17.00;13.10;;;21.70;93.30;;;;;;5020432;28;20539;-60
2022/08/15 05:23:11;;;;;;;18.02;13.93;;;21.80;93.30;;;;;;5021520;28;20064;-59
2022/08/15 05:25:40;;;;;;;14.25;12.70;;;21.80;93.30;;;;;;5019803;28;20075;-59
2022/08/15 05:28:07;;;;;;;16.35;13.88;;;21.80;93.30;;;;;;5020644;28;20037;-59
2022/08/15 05:30:33;;;;;;;15.32;13.18;;;21.90;93.30;;;;;;5021969;28;20120;-60
2022/08/15 05:33:11;;;;;;;14.35;12.35;;;21.90;93.30;;;;;;5021172;28;20128;-60
2022/08/15 05:35:43;;;;;;;15.05;13.45;;;21.90;93.20;;;;;;5020649;28;20495;-60
2022/08/15 05:38:20;;;;;;;15.45;13.20;;;21.90;93.20;;;;;;5019834;28;20148;-60
2022/08/15 05:41:01;;;;;;;16.02;13.52;;;21.90;93.10;;;;;;5020712;28;20050;-60
2022/08/15 05:43:52;;;;;;;16.25;13.90;;;21.90;93.10;;;;;;5020947;28;20633;-62
2022/08/15 05:46:26;;;;;;;14.10;12.70;;;21.90;93.10;;;;;;5020758;28;20083;-60
2022/08/15 05:49:18;;;;;;;15.45;13.02;;;22.00;93.10;;;;;;5004359;28;20136;-60
2022/08/15 05:52:14;;;;;;;15.95;13.20;;;22.00;93.20;;;;;;4994541;28;20049;-61
2022/08/15 05:55:19;;;;;;;16.40;12.82;;;22.10;93.20;;;;;;5021818;28;20077;-61
2022/08/15 05:58:03;;;;;;;15.18;12.75;;;22.10;93.20;;;;;;5014900;28;20048;-60
2022/08/15 06:00:30;;;;;;;15.45;13.85;;;22.20;93.30;;;;;;5020294;28;20094;-61
2022/08/15 06:03:14;;;;;;;17.63;13.35;;;22.20;93.20;;;;;;5018625;28;20054;-61
2022/08/15 06:05:47;;;;;;;14.05;12.70;;;22.30;93.60;;;;;;5006024;28;20480;-60
2022/08/15 06:08:20;;;;;;;15.73;14.00;;;22.30;93.30;;;;;;5021054;28;20518;-61
2022/08/15 06:10:54;;;;;;;16.35;13.20;;;22.40;93.00;;;;;;5018973;28;20037;-61
2022/08/15 06:13:30;;;;;;;15.35;13.23;;;22.40;92.80;;;;;;5021166;28;20897;-61
2022/08/15 06:16:33;;;;;;;13.30;11.98;;;22.50;92.70;;;;;;5022397;28;20072;-61
2022/08/15 06:19:06;;;;;;;14.07;12.68;;;22.60;92.60;;;;;;5012587;28;20582;-60
2022/08/15 06:21:54;;;;;;;15.13;11.82;;;22.60;92.30;;;;;;5020905;28;20041;-61
2022/08/15 06:24:30;;;;;;;15.88;12.25;;;22.70;92.00;;;;;;5020133;28;20128;-61
2022/08/15 06:27:14;;;;;;;15.15;12.23;;;22.70;92.00;;;;;;5018495;28;20495;-61
2022/08/15 06:30:05;;;;;;;15.50;11.85;;;22.70;91.80;;;;;;5020383;28;20697;-61
2022/08/15 06:32:41;;;;;;;14.77;11.60;;;22.80;91.60;;;;;;5020177;28;20483;-61
2022/08/15 06:35:30;;;;;;;15.15;12.00;;;22.90;91.50;;;;;;5020644;28;20045;-60
2022/08/15 06:38:26;;;;;;;13.27;10.65;;;22.90;91.40;;;;;;5020822;28;20088;-61
2022/08/15 06:40:54;;;;;;;13.85;10.55;;;23.00;91.00;;;;;;5035645;28;20049;-60
2022/08/15 06:43:20;;;;;;;15.95;10.90;;;23.10;90.70;;;;;;5021356;28;20056;-61
2022/08/15 06:45:49;;;;;;;16.50;11.50;;;23.10;90.70;;;;;;5019180;28;20523;-61
2022/08/15 06:48:21;;;;;;;13.23;11.20;;;23.20;90.50;;;;;;5021946;28;20476;-61
2022/08/15 06:50:51;;;;;;;12.73;10.80;;;23.30;90.20;;;;;;5022594;28;20049;-61
2022/08/15 06:53:34;;;;;;;22.55;11.20;;;23.30;90.00;;;;;;5005218;28;20061;-61
2022/08/15 06:56:04;;;;;;;13.82;11.30;;;23.40;89.60;;;;;;5024195;28;20049;-61
2022/08/15 06:59:06;;;;;;;12.23;10.93;;;23.40;89.00;;;;;;5039987;28;20160;-60
2022/08/15 07:01:48;;;;;;;14.98;10.77;;;23.50;88.40;;;;;;5023669;28;20049;-61
2022/08/15 07:04:37;;;;;;;13.00;10.68;;;23.50;88.10;;;;;;5022868;28;20404;-61
2022/08/15 07:07:14;;;;;;;16.63;11.20;;;23.60;88.00;;;;;;5024753;28;20666;-61
2022/08/15 07:10:23;;;;;;;13.10;10.90;;;23.70;87.50;;;;;;5005245;28;20474;-61
2022/08/15 07:13:07;;;;;;;16.25;11.25;;;23.70;87.60;;;;;;5025319;28;20389;-61
2022/08/15 07:16:13;;;;;;;15.30;10.77;;;23.80;87.40;;;;;;5024516;28;20049;-62
2022/08/15 07:18:50;;;;;;;13.27;10.73;;;23.80;87.10;;;;;;5024054;28;20132;-60
2022/08/15 07:21:20;;;;;;;16.80;10.85;;;23.80;87.00;;;;;;5022300;28;20504;-62
2022/08/15 07:24:06;;;;;;;18.13;11.63;;;23.80;87.10;;;;;;5022857;28;20042;-62
2022/08/15 07:26:41;;;;;;;17.20;12.15;;;23.90;87.30;;;;;;5024430;28;20091;-62
2022/08/15 07:29:25;;;;;;;14.70;11.20;;;23.90;87.10;;;;;;5022356;28;21389;-61
2022/08/15 07:31:58;;;;;;;15.68;11.98;;;23.90;87.10;;;;;;5023703;28;20042;-62
2022/08/15 07:34:24;;;;;;;15.18;11.35;;;23.90;86.80;;;;;;5024152;28;20107;-61
2022/08/15 07:36:58;;;;;;;15.48;11.77;;;23.90;87.30;;;;;;5021980;28;20049;-62
2022/08/15 07:39:34;;;;;;;14.07;11.73;;;24.00;86.60;;;;;;5023401;28;20432;-62
2022/08/15 07:42:15;;;;;;;13.73;12.30;;;24.00;86.70;;;;;;5021891;28;20061;-62
2022/08/15 07:44:57;;;;;;;16.25;13.02;;;24.00;87.20;;;;;;5022827;28;20484;-61
2022/08/15 07:47:31;;;;;;;18.27;13.30;;;24.10;87.30;;;;;;5023764;28;20049;-61
2022/08/15 07:50:04;;;;;;;18.15;13.18;;;24.10;87.10;;;;;;5020922;28;20061;-62
2022/08/15 07:52:31;;;;;;;15.25;13.65;;;24.10;87.50;;;;;;5024171;28;20092;-62
2022/08/15 07:55:12;;;;;;;15.35;13.48;;;24.10;87.60;;;;;;5023699;28;20129;-62
2022/08/15 07:57:41;;;;;;;16.10;12.85;;;24.20;87.80;;;;;;5023542;28;20127;-62
2022/08/15 08:00:13;;;;;;;17.70;12.77;;;24.20;87.80;;;;;;5021624;28;20072;-62
2022/08/15 08:03:04;;;;;;;16.38;12.90;;;24.30;87.60;;;;;;5038660;28;20045;-62
2022/08/15 08:05:40;;;;;;;16.83;12.93;;;24.30;87.50;;;;;;5022283;28;20057;-61
2022/08/15 08:08:08;;;;;;;15.02;13.00;;;24.40;87.30;;;;;;5020929;28;20088;-62
2022/08/15 08:10:44;;;;;;;15.20;11.52;;;24.40;87.10;;;;;;5023820;28;20052;-62
2022/08/15 08:13:47;;;;;;;14.65;11.73;;;24.40;87.10;;;;;;5022830;28;20708;-61
2022/08/15 08:16:16;;;;;;;;;;;24.50;87.30;;;;;;5024339;28;20048;-60
2022/08/15 08:18:45;;;;;;;12.63;10.70;;;24.60;87.00;;;;;;5020832;28;19928;-60
2022/08/15 08:21:15;;;;;;;19.38;11.63;;;24.80;86.70;;;;;;5036164;28;20049;-60
2022/08/15 08:23:45;;;;;;;16.83;10.57;;;25.00;86.90;;;;;;5023227;28;20056;-60
2022/08/15 08:26:33;;;;;;;16.52;11.07;;;25.20;86.50;;;;;;5022917;28;20146;-60
2022/08/15 08:29:07;;;;;;;15.20;11.02;;;25.30;85.40;;;;;;5022680;28;20045;-60
2022/08/15 08:31:54;;;;;;;13.10;9.90;;;25.60;84.60;;;;;;4990411;28;20084;-60
2022/08/15 08:34:39;;;;;;;10.52;9.48;;;25.90;84.00;;;;;;5021431;28;20056;-60
2022/08/15 08:37:15;;;;;;;14.07;9.18;;;26.10;82.90;;;;;;5022495;28;20506;-60
2022/08/15 08:41:24;;;;;;;13.82;8.57;;;26.30;82.90;;;;;;5037350;28;20131;-60
2022/08/15 08:42:54;;;;;;;9.73;8.05;;;26.40;81.80;;;;;;5036747;28;20107;-60
2022/08/15 08:45:44;;;;;;;12.65;7.65;;;26.50;80.40;;;;;;5022491;28;20049;-60
2022/08/15 08:48:27;;;;;;;14.45;7.70;;;26.70;79.90;;;;;;5016183;28;20060;-60
2022/08/15 08:51:01;;;;;;;;;;;26.80;79.70;;;;;;5021164;28;20053;-61
2022/08/15 08:53:54;;;;;;;10.68;6.68;;;26.90;78.80;;;;;;5022396;28;19935;-60
2022/08/15 08:56:41;;;;;;;10.27;6.20;;;27.00;77.90;;;;;;5021497;28;20543;-60
2022/08/15 08:59:24;;;;;;;10.00;5.80;;;27.20;77.50;;;;;;5021833;28;20515;-60
2022/08/15 09:01:57;;;;;;;6.72;5.78;;;27.30;76.00;;;;;;5023656;28;20111;-61
2022/08/15 09:04:39;;;;;;;9.15;6.13;;;27.50;75.40;;;;;;5022442;28;20103;-60
2022/08/15 09:07:06;;;;;;;7.35;5.68;;;27.50;74.10;;;;;;5025414;28;20041;-60
2022/08/15 09:09:36;;;;;;;7.07;5.63;;;27.50;73.50;;;;;;5022181;28;20127;-61
2022/08/15 09:14:56;;;;;;;8.45;6.03;;;27.50;73.40;;;;;;5020235;28;20143;-60
2022/08/15 09:17:24;;;;;;;9.48;5.80;;;27.40;72.40;;;;;;5023810;28;20503;-60
2022/08/15 09:20:05;;;;;;;7.18;6.03;;;27.40;71.90;;;;;;5021732;28;20045;-60
2022/08/15 09:22:32;;;;;;;5.95;5.43;;;27.30;71.40;;;;;;5023307;28;20049;-60
2022/08/15 09:24:58;;;;;;;6.78;5.40;;;27.40;71.60;;;;;;5021845;28;20179;-60
2022/08/15 09:27:50;;;;;;;12.90;5.88;;;27.40;71.70;;;;;;5020568;28;20056;-60
2022/08/15 09:30:16;;;;;;;7.28;5.47;;;27.50;72.00;;;;;;5022432;28;20397;-60
2022/08/15 09:32:48;;;;;;;8.20;5.93;;;27.50;71.50;;;;;;5022534;28;20045;-61
2022/08/15 09:35:37;;;;;;;7.45;5.43;;;27.50;70.90;;;;;;5020689;28;20037;-60
2022/08/15 09:38:20;;;;;;;9.10;5.85;;;27.60;71.80;;;;;;5023035;28;20080;-60
2022/08/15 09:40:59;;;;;;;11.60;6.38;;;27.60;71.20;;;;;;5022744;28;20037;-61
2022/08/15 09:43:40;;;;;;;6.18;5.55;;;27.60;70.90;;;;;;5021025;28;20050;-60
2022/08/15 09:46:26;;;;;;;6.05;5.45;;;27.70;71.00;;;;;;5023012;28;20045;-60
2022/08/15 09:48:56;;;;;;;7.95;5.63;;;27.70;70.30;;;;;;5020865;28;20056;-60
2022/08/15 09:51:36;;;;;;;9.75;6.10;;;27.70;70.10;;;;;;5021977;28;20107;-60
2022/08/15 09:54:16;;;;;;;12.32;6.10;;;27.80;70.30;;;;;;5020029;28;20049;-60
2022/08/15 09:56:43;;;;;;;10.88;6.50;;;27.90;70.00;;;;;;5020438;28;20187;-60
2022/08/15 09:59:22;;;;;;;12.27;5.90;;;27.90;69.90;;;;;;5021270;28;20053;-60
2022/08/15 10:01:58;;;;;;;6.63;5.97;;;28.00;70.40;;;;;;5022645;28;20045;-60
2022/08/15 10:04:46;;;;;;;10.55;6.03;;;28.00;70.10;;;;;;5019705;28;20041;-61
2022/08/15 10:07:11;;;;;;;10.02;5.95;;;28.10;70.10;;;;;;5020434;28;20503;-60
2022/08/15 10:09:42;;;;;;;6.45;5.78;;;28.20;70.20;;;;;;5020383;28;20047;-61
2022/08/15 10:12:08;;;;;;;8.10;6.35;;;28.30;70.80;;;;;;5020295;28;20166;-60
2022/08/15 10:14:48;;;;;;;7.45;6.35;;;28.50;70.50;;;;;;5021874;28;20431;-59
2022/08/15 10:17:37;;;;;;;8.98;5.68;;;28.60;71.10;;;;;;5018125;28;20508;-60
2022/08/15 10:20:17;;;;;;;6.40;5.78;;;28.80;70.00;;;;;;5018794;28;20033;-60
2022/08/15 10:22:51;;;;;;;8.00;5.95;;;29.00;69.40;;;;;;5020711;28;20057;-60
2022/08/15 10:25:37;;;;;;;9.18;5.78;;;29.00;69.30;;;;;;5020535;28;20042;-59
2022/08/15 10:28:11;;;;;;;8.15;5.40;;;29.00;69.20;;;;;;5021615;28;20106;-61
2022/08/15 10:30:54;;;;;;;8.68;6.20;;;29.10;68.60;;;;;;5020479;28;20042;-60
2022/08/15 10:33:33;;;;;;;9.73;5.72;;;29.20;68.00;;;;;;5020325;28;20407;-60
2022/08/15 10:36:14;;;;;;;6.78;6.03;;;29.20;68.10;;;;;;5020898;28;20083;-61
2022/08/15 10:39:10;;;;;;;8.57;5.82;;;29.20;67.80;;;;;;5019006;28;20560;-60
2022/08/15 10:41:52;;;;;;;11.00;5.97;;;29.30;66.80;;;;;;5021509;28;20555;-60
2022/08/15 10:44:56;;;;;;;10.98;6.25;;;29.30;66.20;;;;;;5020580;28;20045;-61
2022/08/15 10:47:47;;;;;;;10.15;6.30;;;29.40;66.30;;;;;;5022271;28;20053;-61
2022/08/15 10:50:22;;;;;;;9.30;6.20;;;29.40;66.00;;;;;;5020480;28;20089;-61
2022/08/15 10:53:00;;;;;;;9.30;6.53;;;29.40;65.80;;;;;;5022036;28;20057;-61
2022/08/15 10:55:32;;;;;;;7.88;5.70;;;29.40;64.20;;;;;;5020987;28;20565;-61
2022/08/15 10:58:13;;;;;;;9.25;6.50;;;29.40;64.50;;;;;;5020933;28;20053;-61
2022/08/15 11:01:03;;;;;;;7.68;6.47;;;29.40;64.40;;;;;;5020526;28;20037;-60
2022/08/15 11:03:48;;;;;;;13.75;5.97;;;29.40;63.60;;;;;;5022006;28;20476;-60
2022/08/15 11:06:20;;;;;;;11.18;6.82;;;29.40;63.00;;;;;;5018285;28;20044;-61
2022/08/15 11:08:53;;;;;;;11.38;7.50;;;29.40;63.30;;;;;;5019310;28;20985;-60
2022/08/15 11:11:24;;;;;;;11.48;8.18;;;29.50;63.20;;;;;;5021503;28;20096;-61
2022/08/15 11:13:57;;;;;;;13.93;8.70;;;29.50;64.20;;;;;;5021336;28;20060;-61
2022/08/15 11:16:36;;;;;;;13.07;9.32;;;29.50;65.00;;;;;;5022508;28;20144;-61
2022/08/15 11:19:30;;;;;;;14.30;9.20;;;29.60;65.60;;;;;;5020946;28;20077;-60
2022/08/15 11:21:59;;;;;;;12.50;9.52;;;29.70;66.00;;;;;;5005435;28;20041;-60
2022/08/15 11:24:37;;;;;;;14.23;9.55;;;29.80;66.00;;;;;;5018984;28;20045;-61
2022/08/15 11:27:08;;;;;;;11.68;10.40;;;29.80;65.90;;;;;;5021163;28;20115;-60
2022/08/15 11:29:35;;;;;;;12.20;10.50;;;29.70;65.70;;;;;;5017620;28;20476;-61
2022/08/15 11:32:01;;;;;;;11.43;10.25;;;29.50;65.90;;;;;;5020287;28;20389;-60
2022/08/15 11:34:29;;;;;;;13.45;10.20;;;29.30;66.20;;;;;;5022334;28;20060;-60
2022/08/15 11:37:01;;;;;;;15.80;10.60;;;29.10;66.90;;;;;;5023078;28;20046;-60
2022/08/15 11:39:30;;;;;;;12.68;11.13;;;29.00;67.70;;;;;;5022252;28;20041;-61
2022/08/15 11:42:02;;;;;;;15.13;10.15;;;28.90;68.30;;;;;;5038010;28;20210;-61
2022/08/15 11:44:45;;;;;;;17.10;10.73;;;28.70;68.70;;;;;;5023103;28;20099;-61
2022/08/15 11:47:16;;;;;;;12.10;9.70;;;28.50;68.70;;;;;;5023226;28;20084;-60
2022/08/15 11:49:52;;;;;;;11.67;10.40;;;28.40;69.40;;;;;;5024329;28;20085;-61
2022/08/15 11:52:31;;;;;;;13.70;9.35;;;28.20;69.80;;;;;;5023540;28;20077;-61
2022/08/15 11:55:18;;;;;;;15.60;10.35;;;28.00;70.20;;;;;;5022009;28;20052;-60
2022/08/15 11:57:48;;;;;;;15.60;10.73;;;27.90;71.20;;;;;;5023846;28;20063;-60
2022/08/15 12:00:26;;;;;;;14.30;10.05;;;27.80;72.40;;;;;;5020850;28;20041;-60
2022/08/15 12:02:52;;;;;;;18.42;10.52;;;27.60;73.40;;;;;;5023135;28;20046;-60
2022/08/15 12:05:33;;;;;;;14.35;10.75;;;27.50;74.30;;;;;;5022324;28;20056;-60
2022/08/15 12:08:02;;;;;;;13.43;10.30;;;27.40;74.80;;;;;;5024388;28;20053;-61
2022/08/15 12:10:38;;;;;;;19.38;10.98;;;27.30;76.20;;;;;;5024280;28;20045;-60
2022/08/15 12:13:05;;;;;;;14.15;9.95;;;27.20;77.60;;;;;;5024190;28;20111;-60
2022/08/15 12:15:31;;;;;;;10.98;9.23;;;27.10;78.30;;;;;;5020616;28;20041;-60
2022/08/15 12:18:20;;;;;;;12.75;10.40;;;27.10;78.70;;;;;;5022344;28;20048;-60
2022/08/15 12:20:55;;;;;;;10.05;8.95;;;27.10;78.80;;;;;;5022575;28;20041;-60
2022/08/15 12:23:35;;;;;;;9.68;8.73;;;27.20;78.90;;;;;;5023408;28;20093;-60
2022/08/15 12:26:10;;;;;;;9.95;8.30;;;27.20;79.20;;;;;;5023766;28;20069;-60
2022/08/15 12:28:38;;;;;;;12.25;9.13;;;27.20;79.40;;;;;;5005254;28;20049;-60
2022/08/15 12:31:24;;;;;;;15.48;9.23;;;27.20;79.50;;;;;;5022612;28;20488;-59
2022/08/15 12:34:06;;;;;;;10.60;8.95;;;27.20;79.30;;;;;;5021941;28;20558;-60
2022/08/15 12:36:32;;;;;;;10.05;9.05;;;27.20;80.70;;;;;;5017710;28;20484;-60
2022/08/15 12:38:58;;;;;;;11.38;8.85;;;27.20;80.00;;;;;;5020503;28;20038;-61
2022/08/15 12:41:24;;;;;;;9.63;8.23;;;27.20;79.60;;;;;;5022285;28;20098;-61
2022/08/15 12:43:51;;;;;;;12.57;9.35;;;27.30;80.00;;;;;;5022818;28;20045;-60
2022/08/15 12:46:18;;;;;;;13.57;9.77;;;27.30;80.70;;;;;;5021431;28;20037;-61
2022/08/15 12:48:47;;;;;;;10.25;8.93;;;27.40;80.70;;;;;;5021638;28;20579;-60
2022/08/15 12:51:13;;;;;;;9.02;8.13;;;27.30;80.40;;;;;;5019653;28;20065;-61
2022/08/15 12:53:39;;;;;;;12.68;8.75;;;27.30;80.20;;;;;;5021854;28;20053;-61
2022/08/15 12:56:09;;;;;;;12.38;9.65;;;27.30;80.30;;;;;;5021393;28;20045;-61
2022/08/15 12:58:37;;;;;;;12.25;9.25;;;27.40;80.60;;;;;;5023217;28;20037;-60
2022/08/15 13:01:07;;;;;;;15.48;9.60;;;27.50;81.60;;;;;;5022499;28;20037;-60
2022/08/15 13:03:34;;;;;;;17.10;10.07;;;27.60;81.00;;;;;;5022354;28;20053;-60
2022/08/15 13:06:24;;;;;;;13.32;10.40;;;27.80;80.90;;;;;;5036947;28;20065;-61
2022/08/15 13:08:50;;;;;;;11.20;9.55;;;28.10;80.90;;;;;;5022618;28;20045;-61
2022/08/15 13:11:16;;;;;;;16.38;10.43;;;28.40;80.70;;;;;;5005876;28;20642;-61
2022/08/15 13:13:42;;;;;;;11.90;9.40;;;28.80;80.40;;;;;;5021281;28;20049;-61
2022/08/15 13:16:09;;;;;;;12.30;9.77;;;29.20;79.30;;;;;;5034722;28;20135;-61